Arlington, KS

12:54 AM CDT on October 23, 2014 (GMT -0500)
KKSHUTCH9 | Change Station
CLOSE
Current Station
Personal Weather Station
Location: Hutchinson, KS
Elevation: 1549 ft
Nearby Weather Stations

Elev 1549 ft 38.08 °N, 97.92 °W | Updated 9 seconds ago

Mostly Cloudy
Mostly Cloudy
62.6 °F
Feels Like 62.6 °F
N
1.6
Wind Variable Wind from SE
Gusts 2.2 mph

Today
High -- | Low -- °F
--% Chance of Precip.
Yesterday
High -- | Low -- °F
Precip. -- in
7:49 AM 6:44 PM
Waning Crescent, 0% visible
Pressure 30.03 in
Visibility 10.0 miles
Clouds Scattered Clouds 8500 ft
Dew Point 60 °F
Humidity 91%
Rainfall 0.00 in
Snow Depth Not available.
UV 0 out of 12
Pollen 3.60 out of 12
Air Quality Not available.
Flu Activity No Activity
METAR KHUT 230452Z AUTO 19009KT 10SM SCT085 17/14 A3008 RMK AO2 SLP167 T01670139

More Conditions Fewer Conditions

Pressure 30.03 in
Visibility 10.0 miles
Clouds Scattered Clouds 8500 ft
Dew Point 60 °F
Humidity 91%
Rainfall 0.00 in
Snow Depth Not available.
UV 0 out of 12
Pollen 3.60 out of 12
Air Quality Not available.
Flu Activity No Activity
METAR KHUT 230452Z AUTO 19009KT 10SM SCT085 17/14 A3008 RMK AO2 SLP167 T01670139

More Conditions Fewer Conditions

10-Day Weather Forecast

Almanac

Astronomy

Oct. 23, 2014 Rise Set
Actual Time 7:49 AM CDT 6:44 PM CDT
Civil Twilight 7:22 AM CDT 7:11 PM CDT
Nautical Twilight 6:51 AM CDT 7:41 PM CDT
Astronomical Twilight 6:21 AM CDT 8:12 PM CDT
Moon 7:30 AM CDT 6:47 PM CDT
Length of Visible Light 11h 48m
Length of Day
10h 55m
Tomorrow will be 2m 15s shorter.
Waning Crescent, 0% of the Moon is Illuminated
Today
Waning Crescent
Oct 23
New
Oct 30
First Quarter
Nov 6
Full
Nov 14
Last Quarter

Today's Extremes

State Highs State Lows

Community

WunderPhotos

Upload Photos

1,764,188 photos uploaded!

Nearby

Snow Depth

Station Depth Elevation
No new snow has been reported.

Earthquake Activity

City Distance Mag. Time & Date
Crescent, Oklahoma 124 miles 2.7 9:58 PM CDT
2014-10-22
Anthony, Kansas 60 miles 3.3 6:48 PM CDT
2014-10-22
Mooreland, Oklahoma 104 miles 2.8 5:31 PM CDT
2014-10-22
Mooreland, Oklahoma 107 miles 2.5 11:19 AM CDT
2014-10-22
Minimum magnitude displayed is 2.5.

Coastal Water Temperatures

Place Temperature
No Stations Reporting

Nearby Weather Stations